sensor_id;sensor_type;location;lat;lon;timestamp;P1;durP1;ratioP1;P2;durP2;ratioP2
54935;SDS011;40838;50.676;7.838;2024-03-07T00:02:09;49.60;;;20.30;;
54935;SDS011;40838;50.676;7.838;2024-03-07T00:04:36;57.92;;;20.85;;
54935;SDS011;40838;50.676;7.838;2024-03-07T00:07:03;61.08;;;21.30;;
54935;SDS011;40838;50.676;7.838;2024-03-07T00:09:31;50.55;;;21.38;;
54935;SDS011;40838;50.676;7.838;2024-03-07T00:11:59;84.35;;;21.85;;
54935;SDS011;40838;50.676;7.838;2024-03-07T00:14:26;66.85;;;22.65;;
54935;SDS011;40838;50.676;7.838;2024-03-07T00:19:24;61.28;;;21.42;;
54935;SDS011;40838;50.676;7.838;2024-03-07T00:21:52;66.72;;;24.05;;
54935;SDS011;40838;50.676;7.838;2024-03-07T00:24:18;65.93;;;22.25;;
54935;SDS011;40838;50.676;7.838;2024-03-07T00:26:45;71.25;;;23.27;;
54935;SDS011;40838;50.676;7.838;2024-03-07T00:29:15;68.07;;;23.42;;
54935;SDS011;40838;50.676;7.838;2024-03-07T00:31:43;67.85;;;22.90;;
54935;SDS011;40838;50.676;7.838;2024-03-07T00:34:12;73.75;;;25.65;;
54935;SDS011;40838;50.676;7.838;2024-03-07T00:36:41;63.45;;;23.52;;
54935;SDS011;40838;50.676;7.838;2024-03-07T00:39:08;79.22;;;25.40;;
54935;SDS011;40838;50.676;7.838;2024-03-07T00:41:37;70.47;;;25.42;;
54935;SDS011;40838;50.676;7.838;2024-03-07T00:44:04;66.00;;;25.38;;
54935;SDS011;40838;50.676;7.838;2024-03-07T00:46:31;69.07;;;24.25;;
54935;SDS011;40838;50.676;7.838;2024-03-07T00:48:58;66.22;;;25.60;;
54935;SDS011;40838;50.676;7.838;2024-03-07T00:51:26;75.18;;;27.25;;
54935;SDS011;40838;50.676;7.838;2024-03-07T00:53:53;78.68;;;26.58;;
54935;SDS011;40838;50.676;7.838;2024-03-07T00:56:20;71.32;;;24.88;;
54935;SDS011;40838;50.676;7.838;2024-03-07T00:58:48;73.63;;;24.45;;
54935;SDS011;40838;50.676;7.838;2024-03-07T01:01:14;73.57;;;27.23;;
54935;SDS011;40838;50.676;7.838;2024-03-07T01:03:42;77.72;;;25.33;;
54935;SDS011;40838;50.676;7.838;2024-03-07T01:06:09;77.22;;;24.08;;
54935;SDS011;40838;50.676;7.838;2024-03-07T01:08:38;76.35;;;25.95;;
54935;SDS011;40838;50.676;7.838;2024-03-07T01:11:05;64.97;;;24.20;;
54935;SDS011;40838;50.676;7.838;2024-03-07T01:13:35;71.20;;;25.08;;
54935;SDS011;40838;50.676;7.838;2024-03-07T01:16:02;67.35;;;24.65;;
54935;SDS011;40838;50.676;7.838;2024-03-07T01:18:29;60.47;;;23.52;;
54935;SDS011;40838;50.676;7.838;2024-03-07T01:20:59;63.35;;;23.23;;
54935;SDS011;40838;50.676;7.838;2024-03-07T01:23:31;60.10;;;22.20;;
54935;SDS011;40838;50.676;7.838;2024-03-07T01:26:00;56.10;;;20.77;;
54935;SDS011;40838;50.676;7.838;2024-03-07T01:28:27;61.85;;;21.77;;
54935;SDS011;40838;50.676;7.838;2024-03-07T01:30:55;58.35;;;22.98;;
54935;SDS011;40838;50.676;7.838;2024-03-07T01:33:23;60.88;;;22.45;;
54935;SDS011;40838;50.676;7.838;2024-03-07T01:35:50;56.50;;;21.63;;
54935;SDS011;40838;50.676;7.838;2024-03-07T01:38:17;49.25;;;20.58;;
54935;SDS011;40838;50.676;7.838;2024-03-07T01:40:44;53.83;;;20.38;;
54935;SDS011;40838;50.676;7.838;2024-03-07T01:43:13;55.70;;;20.48;;
54935;SDS011;40838;50.676;7.838;2024-03-07T01:45:40;50.17;;;21.02;;
54935;SDS011;40838;50.676;7.838;2024-03-07T01:48:09;49.38;;;19.92;;
54935;SDS011;40838;50.676;7.838;2024-03-07T01:50:36;54.95;;;19.70;;
54935;SDS011;40838;50.676;7.838;2024-03-07T01:53:03;50.15;;;19.35;;
54935;SDS011;40838;50.676;7.838;2024-03-07T01:55:32;54.33;;;20.60;;
54935;SDS011;40838;50.676;7.838;2024-03-07T01:57:59;61.15;;;22.23;;
54935;SDS011;40838;50.676;7.838;2024-03-07T02:00:29;51.95;;;20.55;;
54935;SDS011;40838;50.676;7.838;2024-03-07T02:02:56;49.60;;;18.98;;
54935;SDS011;40838;50.676;7.838;2024-03-07T02:05:23;47.58;;;19.15;;
54935;SDS011;40838;50.676;7.838;2024-03-07T02:07:51;45.47;;;18.42;;
54935;SDS011;40838;50.676;7.838;2024-03-07T02:10:18;48.05;;;18.75;;
54935;SDS011;40838;50.676;7.838;2024-03-07T02:12:45;41.45;;;17.65;;
54935;SDS011;40838;50.676;7.838;2024-03-07T02:15:12;48.33;;;19.38;;
54935;SDS011;40838;50.676;7.838;2024-03-07T02:17:41;50.92;;;19.90;;
54935;SDS011;40838;50.676;7.838;2024-03-07T02:20:09;53.63;;;19.60;;
54935;SDS011;40838;50.676;7.838;2024-03-07T02:22:39;55.42;;;22.40;;
54935;SDS011;40838;50.676;7.838;2024-03-07T02:25:07;54.97;;;22.25;;
54935;SDS011;40838;50.676;7.838;2024-03-07T02:27:35;43.92;;;19.65;;
54935;SDS011;40838;50.676;7.838;2024-03-07T02:30:03;42.03;;;18.55;;
54935;SDS011;40838;50.676;7.838;2024-03-07T02:32:33;39.00;;;15.68;;
54935;SDS011;40838;50.676;7.838;2024-03-07T02:35:00;46.35;;;17.83;;
54935;SDS011;40838;50.676;7.838;2024-03-07T02:37:28;40.40;;;17.35;;
54935;SDS011;40838;50.676;7.838;2024-03-07T02:39:57;44.35;;;18.30;;
54935;SDS011;40838;50.676;7.838;2024-03-07T02:42:23;40.03;;;17.13;;
54935;SDS011;40838;50.676;7.838;2024-03-07T02:44:51;40.85;;;17.70;;
54935;SDS011;40838;50.676;7.838;2024-03-07T02:47:18;38.28;;;15.93;;
54935;SDS011;40838;50.676;7.838;2024-03-07T02:49:45;43.30;;;15.48;;
54935;SDS011;40838;50.676;7.838;2024-03-07T02:52:11;39.72;;;16.52;;
54935;SDS011;40838;50.676;7.838;2024-03-07T02:54:38;44.83;;;17.13;;
54935;SDS011;40838;50.676;7.838;2024-03-07T02:57:07;38.75;;;16.98;;
54935;SDS011;40838;50.676;7.838;2024-03-07T02:59:35;40.60;;;16.42;;
54935;SDS011;40838;50.676;7.838;2024-03-07T03:02:02;49.65;;;16.77;;
54935;SDS011;40838;50.676;7.838;2024-03-07T03:04:28;39.08;;;15.35;;
54935;SDS011;40838;50.676;7.838;2024-03-07T03:06:55;42.75;;;17.50;;
54935;SDS011;40838;50.676;7.838;2024-03-07T03:09:22;36.95;;;17.08;;
54935;SDS011;40838;50.676;7.838;2024-03-07T03:11:49;47.35;;;17.50;;
54935;SDS011;40838;50.676;7.838;2024-03-07T03:14:18;46.03;;;17.27;;
54935;SDS011;40838;50.676;7.838;2024-03-07T03:16:45;48.60;;;19.08;;
54935;SDS011;40838;50.676;7.838;2024-03-07T03:19:11;44.00;;;18.35;;
54935;SDS011;40838;50.676;7.838;2024-03-07T03:21:38;37.70;;;17.35;;
54935;SDS011;40838;50.676;7.838;2024-03-07T03:24:06;44.10;;;18.08;;
54935;SDS011;40838;50.676;7.838;2024-03-07T03:26:33;52.22;;;18.40;;
54935;SDS011;40838;50.676;7.838;2024-03-07T03:28:59;43.38;;;18.10;;
54935;SDS011;40838;50.676;7.838;2024-03-07T03:31:28;43.00;;;17.58;;
54935;SDS011;40838;50.676;7.838;2024-03-07T03:33:54;45.33;;;17.80;;
54935;SDS011;40838;50.676;7.838;2024-03-07T03:36:21;41.13;;;18.63;;
54935;SDS011;40838;50.676;7.838;2024-03-07T03:38:50;40.20;;;17.98;;
54935;SDS011;40838;50.676;7.838;2024-03-07T03:41:17;42.47;;;17.92;;
54935;SDS011;40838;50.676;7.838;2024-03-07T03:43:44;41.28;;;16.73;;
54935;SDS011;40838;50.676;7.838;2024-03-07T03:46:12;39.22;;;18.55;;
54935;SDS011;40838;50.676;7.838;2024-03-07T03:48:41;41.72;;;18.50;;
54935;SDS011;40838;50.676;7.838;2024-03-07T03:51:08;42.28;;;17.50;;
54935;SDS011;40838;50.676;7.838;2024-03-07T03:53:35;38.80;;;17.77;;
54935;SDS011;40838;50.676;7.838;2024-03-07T03:56:02;38.83;;;17.13;;
54935;SDS011;40838;50.676;7.838;2024-03-07T03:58:31;40.78;;;16.30;;
54935;SDS011;40838;50.676;7.838;2024-03-07T04:00:58;44.05;;;18.10;;
54935;SDS011;40838;50.676;7.838;2024-03-07T04:03:25;45.75;;;17.13;;
54935;SDS011;40838;50.676;7.838;2024-03-07T04:05:53;42.35;;;17.75;;
54935;SDS011;40838;50.676;7.838;2024-03-07T04:08:21;42.60;;;17.35;;
54935;SDS011;40838;50.676;7.838;2024-03-07T04:10:48;41.78;;;17.83;;
54935;SDS011;40838;50.676;7.838;2024-03-07T04:13:14;41.50;;;18.23;;
54935;SDS011;40838;50.676;7.838;2024-03-07T04:15:41;39.05;;;16.40;;
54935;SDS011;40838;50.676;7.838;2024-03-07T04:18:08;46.40;;;19.42;;
54935;SDS011;40838;50.676;7.838;2024-03-07T04:20:36;38.40;;;17.42;;
54935;SDS011;40838;50.676;7.838;2024-03-07T04:23:04;43.20;;;17.83;;
54935;SDS011;40838;50.676;7.838;2024-03-07T04:25:31;40.95;;;17.50;;
54935;SDS011;40838;50.676;7.838;2024-03-07T04:27:58;45.78;;;18.13;;
54935;SDS011;40838;50.676;7.838;2024-03-07T04:30:25;39.28;;;16.75;;
54935;SDS011;40838;50.676;7.838;2024-03-07T04:32:51;38.90;;;17.60;;
54935;SDS011;40838;50.676;7.838;2024-03-07T04:35:18;40.00;;;17.58;;
54935;SDS011;40838;50.676;7.838;2024-03-07T04:37:45;37.67;;;17.92;;
54935;SDS011;40838;50.676;7.838;2024-03-07T04:40:13;39.20;;;16.77;;
54935;SDS011;40838;50.676;7.838;2024-03-07T04:42:44;42.15;;;17.67;;
54935;SDS011;40838;50.676;7.838;2024-03-07T04:45:12;45.45;;;18.35;;
54935;SDS011;40838;50.676;7.838;2024-03-07T04:47:39;50.78;;;20.58;;
54935;SDS011;40838;50.676;7.838;2024-03-07T04:50:07;48.65;;;21.35;;
54935;SDS011;40838;50.676;7.838;2024-03-07T04:52:36;45.58;;;19.15;;
54935;SDS011;40838;50.676;7.838;2024-03-07T04:55:03;52.50;;;19.48;;
54935;SDS011;40838;50.676;7.838;2024-03-07T04:57:34;50.67;;;20.35;;
54935;SDS011;40838;50.676;7.838;2024-03-07T05:00:01;47.80;;;19.33;;
54935;SDS011;40838;50.676;7.838;2024-03-07T05:02:32;46.53;;;20.45;;
54935;SDS011;40838;50.676;7.838;2024-03-07T05:04:59;49.47;;;20.00;;
54935;SDS011;40838;50.676;7.838;2024-03-07T05:07:26;43.78;;;19.30;;
54935;SDS011;40838;50.676;7.838;2024-03-07T05:09:53;45.63;;;19.55;;
54935;SDS011;40838;50.676;7.838;2024-03-07T05:12:19;45.72;;;19.88;;
54935;SDS011;40838;50.676;7.838;2024-03-07T05:14:48;48.45;;;20.20;;
54935;SDS011;40838;50.676;7.838;2024-03-07T05:17:14;49.80;;;21.17;;
54935;SDS011;40838;50.676;7.838;2024-03-07T05:19:44;47.40;;;19.27;;
54935;SDS011;40838;50.676;7.838;2024-03-07T05:22:12;45.40;;;18.55;;
54935;SDS011;40838;50.676;7.838;2024-03-07T05:24:41;47.35;;;19.27;;
54935;SDS011;40838;50.676;7.838;2024-03-07T05:27:08;44.72;;;19.95;;
54935;SDS011;40838;50.676;7.838;2024-03-07T05:29:36;47.28;;;18.85;;
54935;SDS011;40838;50.676;7.838;2024-03-07T05:35:02;45.85;;;20.45;;
54935;SDS011;40838;50.676;7.838;2024-03-07T05:37:30;47.83;;;21.08;;
54935;SDS011;40838;50.676;7.838;2024-03-07T05:39:57;40.78;;;18.92;;
54935;SDS011;40838;50.676;7.838;2024-03-07T05:42:24;43.03;;;20.73;;
54935;SDS011;40838;50.676;7.838;2024-03-07T05:44:51;43.17;;;20.45;;
54935;SDS011;40838;50.676;7.838;2024-03-07T05:47:19;45.05;;;20.48;;
54935;SDS011;40838;50.676;7.838;2024-03-07T05:49:46;43.85;;;21.27;;
54935;SDS011;40838;50.676;7.838;2024-03-07T05:52:15;41.08;;;21.63;;
54935;SDS011;40838;50.676;7.838;2024-03-07T05:54:42;43.67;;;21.00;;
54935;SDS011;40838;50.676;7.838;2024-03-07T05:57:09;39.38;;;19.38;;
54935;SDS011;40838;50.676;7.838;2024-03-07T05:59:36;40.88;;;19.15;;
54935;SDS011;40838;50.676;7.838;2024-03-07T06:02:04;41.65;;;20.40;;
54935;SDS011;40838;50.676;7.838;2024-03-07T06:04:30;39.78;;;20.83;;
54935;SDS011;40838;50.676;7.838;2024-03-07T06:06:59;38.47;;;20.48;;
54935;SDS011;40838;50.676;7.838;2024-03-07T06:09:27;37.78;;;20.40;;
54935;SDS011;40838;50.676;7.838;2024-03-07T06:11:54;40.92;;;19.60;;
54935;SDS011;40838;50.676;7.838;2024-03-07T06:14:21;36.70;;;19.15;;
54935;SDS011;40838;50.676;7.838;2024-03-07T06:16:49;38.40;;;20.63;;
54935;SDS011;40838;50.676;7.838;2024-03-07T06:19:17;38.08;;;19.90;;
54935;SDS011;40838;50.676;7.838;2024-03-07T06:21:43;38.70;;;19.35;;
54935;SDS011;40838;50.676;7.838;2024-03-07T06:24:11;38.30;;;20.48;;
54935;SDS011;40838;50.676;7.838;2024-03-07T06:26:41;35.58;;;19.08;;
54935;SDS011;40838;50.676;7.838;2024-03-07T06:29:12;37.20;;;18.88;;
54935;SDS011;40838;50.676;7.838;2024-03-07T06:31:41;32.75;;;17.90;;
54935;SDS011;40838;50.676;7.838;2024-03-07T06:34:08;32.38;;;16.05;;
54935;SDS011;40838;50.676;7.838;2024-03-07T06:36:35;34.00;;;16.63;;
54935;SDS011;40838;50.676;7.838;2024-03-07T06:39:03;34.95;;;18.13;;
54935;SDS011;40838;50.676;7.838;2024-03-07T06:41:30;30.85;;;16.48;;
54935;SDS011;40838;50.676;7.838;2024-03-07T06:43:59;30.83;;;16.10;;
54935;SDS011;40838;50.676;7.838;2024-03-07T06:46:26;27.25;;;15.77;;
54935;SDS011;40838;50.676;7.838;2024-03-07T06:48:53;27.67;;;15.13;;
54935;SDS011;40838;50.676;7.838;2024-03-07T06:51:21;27.55;;;14.75;;
54935;SDS011;40838;50.676;7.838;2024-03-07T06:53:48;27.70;;;15.27;;
54935;SDS011;40838;50.676;7.838;2024-03-07T06:56:15;29.42;;;16.42;;
54935;SDS011;40838;50.676;7.838;2024-03-07T06:58:42;30.60;;;16.02;;
54935;SDS011;40838;50.676;7.838;2024-03-07T07:01:12;30.20;;;16.15;;
54935;SDS011;40838;50.676;7.838;2024-03-07T07:03:40;28.00;;;16.42;;
54935;SDS011;40838;50.676;7.838;2024-03-07T07:06:08;28.27;;;15.45;;
54935;SDS011;40838;50.676;7.838;2024-03-07T07:08:35;30.73;;;15.63;;
54935;SDS011;40838;50.676;7.838;2024-03-07T07:11:03;30.95;;;16.38;;
54935;SDS011;40838;50.676;7.838;2024-03-07T07:13:30;33.00;;;16.45;;
54935;SDS011;40838;50.676;7.838;2024-03-07T07:15:57;31.15;;;16.90;;
54935;SDS011;40838;50.676;7.838;2024-03-07T07:18:25;40.35;;;17.55;;
54935;SDS011;40838;50.676;7.838;2024-03-07T07:20:52;29.83;;;16.27;;
54935;SDS011;40838;50.676;7.838;2024-03-07T07:23:19;30.15;;;15.52;;
54935;SDS011;40838;50.676;7.838;2024-03-07T07:25:46;36.92;;;16.20;;
54935;SDS011;40838;50.676;7.838;2024-03-07T07:28:13;31.50;;;16.73;;
54935;SDS011;40838;50.676;7.838;2024-03-07T07:30:40;42.28;;;16.95;;
54935;SDS011;40838;50.676;7.838;2024-03-07T07:33:07;37.80;;;17.35;;
54935;SDS011;40838;50.676;7.838;2024-03-07T07:35:35;31.77;;;15.82;;
54935;SDS011;40838;50.676;7.838;2024-03-07T07:38:02;33.17;;;15.40;;
54935;SDS011;40838;50.676;7.838;2024-03-07T07:40:32;31.77;;;16.13;;
54935;SDS011;40838;50.676;7.838;2024-03-07T07:42:59;30.83;;;16.25;;
54935;SDS011;40838;50.676;7.838;2024-03-07T07:45:26;30.73;;;16.15;;
54935;SDS011;40838;50.676;7.838;2024-03-07T07:47:53;49.35;;;16.67;;
54935;SDS011;40838;50.676;7.838;2024-03-07T07:50:20;27.52;;;15.13;;
54935;SDS011;40838;50.676;7.838;2024-03-07T07:52:49;35.72;;;15.65;;
54935;SDS011;40838;50.676;7.838;2024-03-07T07:55:16;33.38;;;16.83;;
54935;SDS011;40838;50.676;7.838;2024-03-07T07:57:45;32.95;;;17.50;;
54935;SDS011;40838;50.676;7.838;2024-03-07T08:00:13;36.40;;;16.88;;
54935;SDS011;40838;50.676;7.838;2024-03-07T08:02:48;30.58;;;15.93;;
54935;SDS011;40838;50.676;7.838;2024-03-07T08:05:16;26.27;;;14.85;;
54935;SDS011;40838;50.676;7.838;2024-03-07T08:07:44;29.90;;;14.80;;
54935;SDS011;40838;50.676;7.838;2024-03-07T08:10:12;30.35;;;14.90;;
54935;SDS011;40838;50.676;7.838;2024-03-07T08:12:39;32.15;;;15.23;;
54935;SDS011;40838;50.676;7.838;2024-03-07T08:15:09;28.38;;;14.05;;
54935;SDS011;40838;50.676;7.838;2024-03-07T08:17:41;31.10;;;15.88;;
54935;SDS011;40838;50.676;7.838;2024-03-07T08:20:10;26.30;;;14.07;;
54935;SDS011;40838;50.676;7.838;2024-03-07T08:22:38;27.55;;;13.70;;
54935;SDS011;40838;50.676;7.838;2024-03-07T08:25:07;31.13;;;14.95;;
54935;SDS011;40838;50.676;7.838;2024-03-07T08:27:37;29.17;;;14.63;;
54935;SDS011;40838;50.676;7.838;2024-03-07T08:30:05;30.25;;;16.27;;
54935;SDS011;40838;50.676;7.838;2024-03-07T08:32:33;29.52;;;14.25;;
54935;SDS011;40838;50.676;7.838;2024-03-07T08:35:02;28.48;;;14.80;;
54935;SDS011;40838;50.676;7.838;2024-03-07T08:37:32;33.58;;;14.32;;
54935;SDS011;40838;50.676;7.838;2024-03-07T08:39:59;27.73;;;15.15;;
54935;SDS011;40838;50.676;7.838;2024-03-07T08:42:26;28.55;;;14.90;;
54935;SDS011;40838;50.676;7.838;2024-03-07T08:44:54;28.25;;;15.13;;
54935;SDS011;40838;50.676;7.838;2024-03-07T08:47:21;33.45;;;16.20;;
54935;SDS011;40838;50.676;7.838;2024-03-07T08:49:48;31.42;;;16.05;;
54935;SDS011;40838;50.676;7.838;2024-03-07T08:52:15;38.70;;;17.02;;
54935;SDS011;40838;50.676;7.838;2024-03-07T08:54:41;32.22;;;16.13;;
54935;SDS011;40838;50.676;7.838;2024-03-07T08:57:09;31.88;;;17.33;;
54935;SDS011;40838;50.676;7.838;2024-03-07T08:59:36;31.30;;;15.75;;
54935;SDS011;40838;50.676;7.838;2024-03-07T09:02:04;30.58;;;16.73;;
54935;SDS011;40838;50.676;7.838;2024-03-07T09:04:31;31.90;;;16.10;;
54935;SDS011;40838;50.676;7.838;2024-03-07T09:06:58;36.13;;;17.27;;
54935;SDS011;40838;50.676;7.838;2024-03-07T09:09:25;31.00;;;16.48;;
54935;SDS011;40838;50.676;7.838;2024-03-07T09:11:52;36.00;;;18.02;;
54935;SDS011;40838;50.676;7.838;2024-03-07T09:14:18;32.15;;;16.38;;
54935;SDS011;40838;50.676;7.838;2024-03-07T09:16:46;31.05;;;16.00;;
54935;SDS011;40838;50.676;7.838;2024-03-07T09:19:15;29.58;;;16.23;;
54935;SDS011;40838;50.676;7.838;2024-03-07T09:21:45;32.95;;;14.68;;
54935;SDS011;40838;50.676;7.838;2024-03-07T09:24:12;32.42;;;14.55;;
54935;SDS011;40838;50.676;7.838;2024-03-07T09:26:40;27.88;;;13.77;;
54935;SDS011;40838;50.676;7.838;2024-03-07T09:29:07;27.80;;;14.05;;
54935;SDS011;40838;50.676;7.838;2024-03-07T09:31:36;22.65;;;12.02;;
54935;SDS011;40838;50.676;7.838;2024-03-07T09:34:04;27.75;;;15.30;;
54935;SDS011;40838;50.676;7.838;2024-03-07T09:36:33;30.85;;;16.42;;
54935;SDS011;40838;50.676;7.838;2024-03-07T09:39:00;23.17;;;13.73;;
54935;SDS011;40838;50.676;7.838;2024-03-07T09:41:27;27.45;;;13.25;;
54935;SDS011;40838;50.676;7.838;2024-03-07T09:43:54;26.80;;;13.20;;
54935;SDS011;40838;50.676;7.838;2024-03-07T09:46:22;21.45;;;12.80;;
54935;SDS011;40838;50.676;7.838;2024-03-07T09:48:50;25.05;;;12.07;;
54935;SDS011;40838;50.676;7.838;2024-03-07T09:51:18;22.35;;;11.55;;
54935;SDS011;40838;50.676;7.838;2024-03-07T09:53:48;24.25;;;14.60;;
54935;SDS011;40838;50.676;7.838;2024-03-07T09:56:16;24.27;;;12.77;;
54935;SDS011;40838;50.676;7.838;2024-03-07T09:58:46;22.77;;;12.50;;
54935;SDS011;40838;50.676;7.838;2024-03-07T10:01:15;20.52;;;11.45;;
54935;SDS011;40838;50.676;7.838;2024-03-07T10:03:47;21.05;;;12.40;;
54935;SDS011;40838;50.676;7.838;2024-03-07T10:06:14;23.00;;;12.48;;
54935;SDS011;40838;50.676;7.838;2024-03-07T10:08:41;19.45;;;11.57;;
54935;SDS011;40838;50.676;7.838;2024-03-07T10:11:10;22.77;;;12.50;;
54935;SDS011;40838;50.676;7.838;2024-03-07T10:13:37;20.13;;;10.88;;
54935;SDS011;40838;50.676;7.838;2024-03-07T10:16:04;20.20;;;12.15;;
54935;SDS011;40838;50.676;7.838;2024-03-07T10:18:33;24.13;;;13.00;;
54935;SDS011;40838;50.676;7.838;2024-03-07T10:21:07;21.08;;;12.60;;
54935;SDS011;40838;50.676;7.838;2024-03-07T10:23:36;23.80;;;13.05;;
54935;SDS011;40838;50.676;7.838;2024-03-07T10:26:04;23.80;;;12.60;;
54935;SDS011;40838;50.676;7.838;2024-03-07T10:28:32;21.45;;;12.18;;
54935;SDS011;40838;50.676;7.838;2024-03-07T10:30:59;23.90;;;12.77;;
54935;SDS011;40838;50.676;7.838;2024-03-07T10:33:28;25.65;;;13.38;;
54935;SDS011;40838;50.676;7.838;2024-03-07T10:35:58;24.98;;;12.95;;
54935;SDS011;40838;50.676;7.838;2024-03-07T10:38:26;26.10;;;14.18;;
54935;SDS011;40838;50.676;7.838;2024-03-07T10:40:53;19.63;;;11.90;;
54935;SDS011;40838;50.676;7.838;2024-03-07T10:43:21;23.70;;;12.15;;
54935;SDS011;40838;50.676;7.838;2024-03-07T10:45:52;20.48;;;11.40;;
54935;SDS011;40838;50.676;7.838;2024-03-07T10:48:22;21.88;;;11.57;;
54935;SDS011;40838;50.676;7.838;2024-03-07T10:50:58;23.30;;;12.63;;
54935;SDS011;40838;50.676;7.838;2024-03-07T10:53:38;20.52;;;12.32;;
54935;SDS011;40838;50.676;7.838;2024-03-07T10:56:17;21.48;;;11.00;;
54935;SDS011;40838;50.676;7.838;2024-03-07T10:58:53;19.00;;;11.38;;
54935;SDS011;40838;50.676;7.838;2024-03-07T11:01:28;22.92;;;12.25;;
54935;SDS011;40838;50.676;7.838;2024-03-07T11:03:59;18.70;;;10.60;;
54935;SDS011;40838;50.676;7.838;2024-03-07T11:06:29;18.48;;;10.43;;
54935;SDS011;40838;50.676;7.838;2024-03-07T11:08:59;19.33;;;10.70;;
54935;SDS011;40838;50.676;7.838;2024-03-07T11:11:28;22.05;;;12.85;;
54935;SDS011;40838;50.676;7.838;2024-03-07T11:13:56;23.33;;;12.15;;
54935;SDS011;40838;50.676;7.838;2024-03-07T11:16:24;24.08;;;12.73;;
54935;SDS011;40838;50.676;7.838;2024-03-07T11:21:47;21.17;;;12.95;;
54935;SDS011;40838;50.676;7.838;2024-03-07T11:24:23;24.48;;;13.23;;
54935;SDS011;40838;50.676;7.838;2024-03-07T11:26:51;27.45;;;13.32;;
54935;SDS011;40838;50.676;7.838;2024-03-07T11:32:13;31.20;;;13.90;;
54935;SDS011;40838;50.676;7.838;2024-03-07T11:34:42;27.95;;;13.02;;
54935;SDS011;40838;50.676;7.838;2024-03-07T11:37:16;23.15;;;13.52;;
54935;SDS011;40838;50.676;7.838;2024-03-07T11:39:47;24.45;;;13.32;;
54935;SDS011;40838;50.676;7.838;2024-03-07T11:42:19;27.08;;;14.05;;
54935;SDS011;40838;50.676;7.838;2024-03-07T11:47:18;24.30;;;12.98;;
54935;SDS011;40838;50.676;7.838;2024-03-07T11:49:45;23.98;;;12.38;;
54935;SDS011;40838;50.676;7.838;2024-03-07T11:52:14;25.83;;;14.25;;
54935;SDS011;40838;50.676;7.838;2024-03-07T11:54:42;25.52;;;12.50;;
54935;SDS011;40838;50.676;7.838;2024-03-07T11:57:12;23.10;;;13.50;;
54935;SDS011;40838;50.676;7.838;2024-03-07T11:59:41;27.08;;;14.73;;
54935;SDS011;40838;50.676;7.838;2024-03-07T12:02:11;24.23;;;13.15;;
54935;SDS011;40838;50.676;7.838;2024-03-07T12:04:41;23.38;;;12.43;;
54935;SDS011;40838;50.676;7.838;2024-03-07T12:07:08;20.83;;;12.40;;
54935;SDS011;40838;50.676;7.838;2024-03-07T12:09:37;23.65;;;12.55;;
54935;SDS011;40838;50.676;7.838;2024-03-07T12:12:04;24.05;;;12.55;;
54935;SDS011;40838;50.676;7.838;2024-03-07T12:14:32;26.60;;;13.98;;
54935;SDS011;40838;50.676;7.838;2024-03-07T12:16:59;24.48;;;12.73;;
54935;SDS011;40838;50.676;7.838;2024-03-07T12:19:29;24.52;;;12.77;;
54935;SDS011;40838;50.676;7.838;2024-03-07T12:22:02;26.88;;;12.60;;
54935;SDS011;40838;50.676;7.838;2024-03-07T12:24:29;26.92;;;12.73;;
54935;SDS011;40838;50.676;7.838;2024-03-07T12:27:06;24.02;;;12.70;;
54935;SDS011;40838;50.676;7.838;2024-03-07T12:29:35;24.85;;;12.60;;
54935;SDS011;40838;50.676;7.838;2024-03-07T12:32:03;20.95;;;11.90;;
54935;SDS011;40838;50.676;7.838;2024-03-07T12:34:31;23.45;;;12.90;;
54935;SDS011;40838;50.676;7.838;2024-03-07T12:37:03;22.73;;;12.55;;
54935;SDS011;40838;50.676;7.838;2024-03-07T12:39:31;19.95;;;12.23;;
54935;SDS011;40838;50.676;7.838;2024-03-07T12:42:04;17.00;;;9.90;;
54935;SDS011;40838;50.676;7.838;2024-03-07T12:44:41;21.65;;;11.80;;
54935;SDS011;40838;50.676;7.838;2024-03-07T12:47:11;21.48;;;12.68;;
54935;SDS011;40838;50.676;7.838;2024-03-07T12:49:39;23.35;;;13.00;;
54935;SDS011;40838;50.676;7.838;2024-03-07T12:52:08;25.23;;;13.30;;
54935;SDS011;40838;50.676;7.838;2024-03-07T12:54:35;21.10;;;12.00;;
54935;SDS011;40838;50.676;7.838;2024-03-07T12:57:06;25.10;;;12.85;;
54935;SDS011;40838;50.676;7.838;2024-03-07T12:59:34;26.20;;;12.88;;
54935;SDS011;40838;50.676;7.838;2024-03-07T13:02:02;24.63;;;13.60;;
54935;SDS011;40838;50.676;7.838;2024-03-07T13:04:31;23.13;;;12.23;;
54935;SDS011;40838;50.676;7.838;2024-03-07T13:06:58;21.10;;;12.73;;
54935;SDS011;40838;50.676;7.838;2024-03-07T13:09:30;20.20;;;12.35;;
54935;SDS011;40838;50.676;7.838;2024-03-07T13:11:57;22.65;;;12.65;;
54935;SDS011;40838;50.676;7.838;2024-03-07T13:14:28;23.33;;;12.40;;
54935;SDS011;40838;50.676;7.838;2024-03-07T13:16:59;20.58;;;11.77;;
54935;SDS011;40838;50.676;7.838;2024-03-07T13:19:26;24.90;;;11.93;;
54935;SDS011;40838;50.676;7.838;2024-03-07T13:21:53;23.90;;;12.77;;
54935;SDS011;40838;50.676;7.838;2024-03-07T13:24:20;22.65;;;11.40;;
54935;SDS011;40838;50.676;7.838;2024-03-07T13:26:49;19.83;;;11.48;;
54935;SDS011;40838;50.676;7.838;2024-03-07T13:29:16;20.95;;;12.13;;
54935;SDS011;40838;50.676;7.838;2024-03-07T13:31:49;23.77;;;11.48;;
54935;SDS011;40838;50.676;7.838;2024-03-07T13:34:18;18.02;;;9.98;;
54935;SDS011;40838;50.676;7.838;2024-03-07T13:36:45;22.65;;;11.30;;
54935;SDS011;40838;50.676;7.838;2024-03-07T13:39:12;19.10;;;10.60;;
54935;SDS011;40838;50.676;7.838;2024-03-07T13:41:41;19.92;;;10.73;;
54935;SDS011;40838;50.676;7.838;2024-03-07T13:44:09;17.95;;;10.63;;
54935;SDS011;40838;50.676;7.838;2024-03-07T13:46:39;19.52;;;10.40;;
54935;SDS011;40838;50.676;7.838;2024-03-07T13:49:06;19.58;;;9.95;;
54935;SDS011;40838;50.676;7.838;2024-03-07T13:51:38;15.70;;;9.68;;
54935;SDS011;40838;50.676;7.838;2024-03-07T13:54:15;18.20;;;9.98;;
54935;SDS011;40838;50.676;7.838;2024-03-07T14:00:05;16.30;;;10.02;;
54935;SDS011;40838;50.676;7.838;2024-03-07T14:02:56;15.10;;;9.27;;
54935;SDS011;40838;50.676;7.838;2024-03-07T14:05:56;31.73;;;17.75;;
54935;SDS011;40838;50.676;7.838;2024-03-07T14:08:49;17.58;;;10.20;;
54935;SDS011;40838;50.676;7.838;2024-03-07T14:11:54;20.00;;;9.30;;
54935;SDS011;40838;50.676;7.838;2024-03-07T14:24:35;18.70;;;9.30;;
54935;SDS011;40838;50.676;7.838;2024-03-07T14:27:23;21.45;;;9.85;;
54935;SDS011;40838;50.676;7.838;2024-03-07T14:29:59;16.80;;;8.88;;
54935;SDS011;40838;50.676;7.838;2024-03-07T14:32:49;16.85;;;9.27;;
54935;SDS011;40838;50.676;7.838;2024-03-07T14:35:23;16.00;;;9.43;;
54935;SDS011;40838;50.676;7.838;2024-03-07T14:38:02;18.50;;;9.88;;
54935;SDS011;40838;50.676;7.838;2024-03-07T14:40:48;16.80;;;9.18;;
54935;SDS011;40838;50.676;7.838;2024-03-07T14:43:16;16.33;;;8.30;;
54935;SDS011;40838;50.676;7.838;2024-03-07T14:45:44;16.95;;;8.85;;
54935;SDS011;40838;50.676;7.838;2024-03-07T14:48:13;16.60;;;9.70;;
54935;SDS011;40838;50.676;7.838;2024-03-07T14:50:45;15.38;;;9.05;;
54935;SDS011;40838;50.676;7.838;2024-03-07T14:53:12;18.23;;;10.02;;
54935;SDS011;40838;50.676;7.838;2024-03-07T14:55:42;17.67;;;9.38;;
54935;SDS011;40838;50.676;7.838;2024-03-07T14:58:09;19.92;;;9.98;;
54935;SDS011;40838;50.676;7.838;2024-03-07T15:00:36;16.20;;;9.02;;